Saturday, November 18, 2017, 6:21 PM EST
Back to Local

KRUT, Rutland, Rutland-southern Vermont Regional Airport

Location: North Clarendon, VT, United States Lat: 43.533
Local Time: 6:21 PM EST (23:21 GMT) Lon: -72.95
Time Zone: US/Eastern Elev: 787 ft

Show me the last for .
Show Decoded

2017-11-18 18:11 METAR KRUT 182311Z AUTO 11014KT 10SM OVC029 03/M04 A2956 RMK AO2 $ =
2017-11-18 17:56 METAR KRUT 182256Z AUTO 11015G20KT 10SM OVC031 03/M04 A2956 RMK AO2 SLP030
                 T00331044 $ =
2017-11-18 16:56 METAR KRUT 182156Z AUTO 10014G20KT 10SM OVC035 03/M06 A2958 RMK AO2 SLP038
                 T00281056 $ =
2017-11-18 15:56 METAR KRUT 182056Z AUTO 11016G22KT 10SM OVC039 03/M06 A2959 RMK AO2 SLP042
                 T00281061 56031 $ =
2017-11-18 14:56 METAR KRUT 181956Z AUTO 12016KT 10SM OVC060 03/M07 A2961 RMK AO2 SLP050
                 T00281067 $ =
2017-11-18 13:56 METAR KRUT 181856Z AUTO 11015KT 10SM BKN100 02/M07 A2963 RMK AO2 SLP056
                 T00221072 FZRANO $ =
2017-11-18 12:56 METAR KRUT 181756Z AUTO 12014G19KT 10SM OVC100 02/M09 A2968 RMK AO2 RAB21E32
                 SLP074 P0000 60000 T00221089 10022 21056 57039 FZRANO $ =
2017-11-18 11:56 METAR KRUT 181656Z AUTO 13011KT 10SM OVC110 02/M09 A2972 RMK AO2 SLP087
                 T00171094 FZRANO $ =
2017-11-18 10:56 METAR KRUT 181556Z AUTO 13012KT 10SM CLR 02/M10 A2976 RMK AO2 PRESFR SLP101
                 T00171100 FZRANO $ =
2017-11-18 09:56 METAR KRUT 181456Z AUTO 15007KT 10SM FEW120 M01/M08 A2980 RMK AO2 SLP115
                 T10111078 58033 FZRANO $ =
2017-11-18 08:56 METAR KRUT 181356Z AUTO 20006KT 10SM CLR M02/M07 A2985 RMK AO2 SLP127 T10221072
                 FZRANO $ =
2017-11-18 07:56 METAR KRUT 181256Z AUTO 17005KT 10SM CLR M05/M08 A2989 RMK AO2 SLP142 T10501078
                 FZRANO $ =
2017-11-18 06:56 METAR KRUT 181156Z AUTO 13008KT 10SM CLR M06/M09 A2990 RMK AO2 SLP147 T10561089
                 11056 21078 56026 FZRANO $ =
2017-11-18 05:56 METAR KRUT 181056Z AUTO 13004KT 10SM BKN110 M06/M08 A2992 RMK AO2 SLP151
                 T10561083 FZRANO $ =
2017-11-18 04:56 METAR KRUT 180956Z AUTO 18004KT 10SM CLR M07/M08 A2994 RMK AO2 SLP160 T10721083
                 FZRANO $ =
2017-11-18 03:56 METAR KRUT 180856Z AUTO 00000KT 10SM CLR M08/M09 A2998 RMK AO2 SLP174 T10781089
                 58006 FZRANO $ =
2017-11-18 02:56 METAR KRUT 180756Z AUTO 14003KT 10SM CLR M07/M08 A2998 RMK AO2 SLP177 T10721083
                 FZRANO $ =
2017-11-18 01:56 METAR KRUT 180656Z AUTO 00000KT 10SM CLR M07/M08 A3002 RMK AO2 SLP189 T10721083
                 FZRANO $ =
2017-11-17 23:56 METAR KRUT 180456Z AUTO 05004KT 10SM CLR M06/M08 A3004 RMK AO2 SLP192 T10611078
                 400221061 FZRANO $ =
2017-11-17 22:56 METAR KRUT 180356Z AUTO 13003KT 10SM CLR M06/M07 A3004 RMK AO2 SLP193 T10561072
                 FZRANO $ =
2017-11-17 21:56 METAR KRUT 180256Z AUTO 00000KT 10SM CLR M05/M07 A3002 RMK AO2 SLP189 T10501072
                 58013 FZRANO $ =
2017-11-17 19:56 METAR KRUT 180056Z AUTO 03004KT 10SM CLR M03/M08 A3004 RMK AO2 SLP197 T10331083
                 FZRANO $ =
2017-11-17 18:56 METAR KRUT 172356Z AUTO 35005KT 10SM CLR M03/M08 A3006 RMK AO2 SLP201 T10281078
                 10017 21028 53014 FZRANO $ =

Support USWX by starting your Amazon purchase here.